Time;durP1;ratioP1;P1;durP2;ratioP2;P2;SDS_P1;SDS_P2;PMS_P1;PMS_P2;Temp;Humidity;BMP_temperature;BMP_pressure;BME280_temperature;BME280_humidity;BME280_pressure;Samples;Min_cycle;Max_cycle;Signal;HPM_P1;HPM_P2
2023/07/08 00:00:17;;;;;;;8.40;4.00;;;18.30;90.00;;;;;;4979736;28;20548;-60
2023/07/08 00:02:43;;;;;;;9.50;3.50;;;18.20;90.20;;;;;;4978436;28;20541;-60
2023/07/08 00:05:14;;;;;;;6.45;3.78;;;18.20;90.60;;;;;;4981472;28;20046;-60
2023/07/08 00:07:41;;;;;;;5.88;3.40;;;18.10;90.90;;;;;;4981242;28;20114;-60
2023/07/08 00:10:24;;;;;;;4.78;3.47;;;18.10;91.20;;;;;;4978989;28;20038;-59
2023/07/08 00:12:53;;;;;;;4.80;3.42;;;18.10;91.40;;;;;;4980312;28;20046;-60
2023/07/08 00:15:22;;;;;;;5.10;3.65;;;18.00;91.70;;;;;;4968189;28;20045;-61
2023/07/08 00:17:48;;;;;;;7.15;3.72;;;18.00;92.00;;;;;;4980344;28;22349;-60
2023/07/08 00:20:19;;;;;;;7.55;3.83;;;17.90;92.20;;;;;;4963884;28;20093;-60
2023/07/08 00:22:46;;;;;;;5.28;3.42;;;17.90;92.40;;;;;;4958360;28;20494;-60
2023/07/08 00:25:16;;;;;;;6.07;3.78;;;17.90;92.60;;;;;;4957314;28;20101;-60
2023/07/08 00:27:42;;;;;;;6.60;3.50;;;17.90;93.00;;;;;;4980207;28;20046;-59
2023/07/08 00:30:15;;;;;;;6.70;3.70;;;17.80;93.10;;;;;;4977152;28;20052;-59
2023/07/08 00:32:41;;;;;;;;;;;17.80;93.30;;;;;;4979773;28;20118;-60
2023/07/08 00:35:07;;;;;;;7.15;3.50;;;17.80;93.10;;;;;;4980319;28;19917;-59
2023/07/08 00:37:33;;;;;;;5.93;3.90;;;17.70;93.50;;;;;;4961905;28;20052;-60
2023/07/08 00:39:58;;;;;;;6.10;4.07;;;17.70;93.80;;;;;;4959307;28;20058;-60
2023/07/08 00:42:25;;;;;;;7.18;3.88;;;17.70;94.00;;;;;;4980986;28;20038;-60
2023/07/08 00:44:51;;;;;;;7.82;4.00;;;17.70;94.20;;;;;;4975147;28;20053;-60
2023/07/08 00:47:18;;;;;;;7.38;4.00;;;17.60;94.40;;;;;;4960882;28;20046;-60
2023/07/08 00:49:51;;;;;;;6.20;3.63;;;17.60;94.70;;;;;;4973162;28;20046;-60
2023/07/08 00:52:29;;;;;;;7.20;4.00;;;17.60;94.80;;;;;;4975415;28;20080;-60
2023/07/08 00:55:02;;;;;;;7.65;4.05;;;17.60;95.00;;;;;;4972802;28;20510;-59
2023/07/08 00:57:31;;;;;;;6.07;3.53;;;17.50;95.20;;;;;;4975255;28;20042;-60
2023/07/08 01:00:08;;;;;;;5.85;3.80;;;17.50;95.40;;;;;;4967328;28;20047;-59
2023/07/08 01:02:41;;;;;;;4.97;3.90;;;17.50;95.60;;;;;;4962870;28;20034;-58
2023/07/08 01:05:14;;;;;;;7.68;3.92;;;17.50;95.60;;;;;;4969248;28;22381;-59
2023/07/08 01:07:44;;;;;;;8.73;4.13;;;17.50;95.90;;;;;;4952004;28;20038;-59
2023/07/08 01:10:14;;;;;;;8.77;3.75;;;17.50;96.00;;;;;;4971667;28;20053;-59
2023/07/08 01:12:47;;;;;;;6.28;4.00;;;17.40;96.20;;;;;;4976785;28;20521;-60
2023/07/08 01:15:15;;;;;;;10.27;4.07;;;17.40;96.40;;;;;;4964500;28;20129;-59
2023/07/08 01:17:44;;;;;;;9.15;4.20;;;17.40;96.60;;;;;;4976368;28;20045;-58
2023/07/08 01:20:14;;;;;;;6.53;3.80;;;17.30;96.90;;;;;;4979164;28;20057;-60
2023/07/08 01:22:41;;;;;;;5.32;3.92;;;17.30;97.10;;;;;;4977896;28;20126;-60
2023/07/08 01:25:09;;;;;;;8.88;3.88;;;17.30;97.20;;;;;;4977272;28;20126;-60
2023/07/08 01:27:39;;;;;;;6.22;4.00;;;17.20;97.30;;;;;;4977533;28;20624;-60
2023/07/08 01:30:06;;;;;;;10.00;4.20;;;17.20;97.50;;;;;;4956542;28;20065;-60
2023/07/08 01:32:39;;;;;;;6.05;3.92;;;17.20;97.60;;;;;;4978359;28;20042;-60
2023/07/08 01:35:06;;;;;;;19.08;4.35;;;17.20;97.80;;;;;;4960358;28;20105;-60
2023/07/08 01:37:42;;;;;;;8.98;4.28;;;17.10;98.00;;;;;;4958330;28;20054;-59
2023/07/08 01:40:30;;;;;;;7.90;4.07;;;17.10;98.30;;;;;;4976793;28;20508;-60
2023/07/08 01:42:56;;;;;;;7.90;3.90;;;17.10;98.40;;;;;;4979355;28;20135;-58
2023/07/08 01:45:26;;;;;;;7.68;4.20;;;17.10;98.60;;;;;;4975238;28;20038;-59
2023/07/08 01:48:03;;;;;;;5.97;4.30;;;17.00;98.70;;;;;;4973833;28;20100;-60
2023/07/08 01:50:32;;;;;;;6.88;4.25;;;17.10;98.90;;;;;;4975215;28;20564;-60
2023/07/08 01:53:00;;;;;;;9.25;4.50;;;17.00;99.10;;;;;;4974514;28;20042;-59
2023/07/08 01:55:30;;;;;;;7.22;4.30;;;17.00;99.30;;;;;;4976383;28;20038;-60
2023/07/08 01:57:56;;;;;;;6.75;4.55;;;17.00;99.50;;;;;;4961482;28;20062;-59
2023/07/08 02:00:22;;;;;;;7.70;4.60;;;17.00;99.60;;;;;;4976047;28;20515;-60
2023/07/08 02:02:48;;;;;;;9.63;4.50;;;16.90;99.70;;;;;;4977633;28;20059;-59
2023/07/08 02:05:14;;;;;;;6.82;4.38;;;16.90;99.90;;;;;;4973860;28;20073;-60
2023/07/08 02:07:40;;;;;;;10.07;4.70;;;16.90;99.90;;;;;;4975519;28;20073;-60
2023/07/08 02:10:06;;;;;;;6.32;4.60;;;16.90;99.90;;;;;;4974103;28;20109;-59
2023/07/08 02:12:32;;;;;;;8.27;4.63;;;16.90;99.90;;;;;;4978111;28;20071;-60
2023/07/08 02:15:00;;;;;;;9.50;4.15;;;16.80;99.90;;;;;;4959129;28;20124;-60
2023/07/08 02:17:28;;;;;;;6.40;4.35;;;16.80;99.90;;;;;;4977984;28;20118;-60
2023/07/08 02:19:55;;;;;;;7.55;4.75;;;16.80;99.90;;;;;;4977089;28;20508;-59
2023/07/08 02:22:21;;;;;;;7.40;4.68;;;16.80;99.90;;;;;;4975042;28;20042;-59
2023/07/08 02:24:47;;;;;;;6.85;4.10;;;16.80;99.90;;;;;;4978292;28;20034;-59
2023/07/08 02:27:13;;;;;;;6.88;4.72;;;16.70;99.90;;;;;;4975485;28;20133;-59
2023/07/08 02:29:39;;;;;;;6.85;4.43;;;16.70;99.90;;;;;;4974946;28;20360;-59
2023/07/08 02:32:06;;;;;;;8.27;4.88;;;16.70;99.90;;;;;;4973770;28;20050;-60
2023/07/08 02:34:32;;;;;;;6.72;4.63;;;16.70;99.90;;;;;;4973463;28;20119;-60
2023/07/08 02:36:57;;;;;;;9.15;4.50;;;16.70;99.90;;;;;;4978671;28;20034;-59
2023/07/08 02:39:23;;;;;;;8.05;4.40;;;16.60;99.90;;;;;;4956608;28;20038;-59
2023/07/08 02:41:49;;;;;;;6.88;4.90;;;16.60;99.90;;;;;;4957738;28;20395;-60
2023/07/08 02:44:15;;;;;;;8.35;4.78;;;16.60;99.90;;;;;;4973440;28;20088;-60
2023/07/08 02:46:40;;;;;;;12.68;5.05;;;16.50;99.90;;;;;;4958101;28;20046;-60
2023/07/08 02:49:07;;;;;;;7.30;4.80;;;16.50;99.90;;;;;;4961802;28;20100;-58
2023/07/08 02:51:33;;;;;;;8.50;5.10;;;16.50;99.90;;;;;;4975782;28;20057;-60
2023/07/08 02:53:58;;;;;;;8.00;5.53;;;16.50;99.90;;;;;;4952457;28;21269;-60
2023/07/08 02:56:26;;;;;;;8.10;5.15;;;16.50;99.90;;;;;;4975999;28;20041;-60
2023/07/08 02:58:52;;;;;;;8.63;5.20;;;16.40;99.90;;;;;;4971894;28;20923;-60
2023/07/08 03:01:18;;;;;;;7.70;5.15;;;16.40;99.90;;;;;;4973288;28;20145;-60
2023/07/08 03:03:45;;;;;;;11.32;5.10;;;16.40;99.90;;;;;;4965619;28;20043;-59
2023/07/08 03:06:11;;;;;;;9.00;4.80;;;16.40;99.90;;;;;;4977823;28;20035;-59
2023/07/08 03:08:37;;;;;;;7.45;5.28;;;16.40;99.90;;;;;;4971616;28;20132;-59
2023/07/08 03:11:05;;;;;;;6.78;5.05;;;16.40;99.90;;;;;;4974300;28;20045;-60
2023/07/08 03:13:32;;;;;;;7.93;5.72;;;16.40;99.90;;;;;;4974919;28;20046;-59
2023/07/08 03:16:00;;;;;;;7.78;5.85;;;16.40;99.90;;;;;;4974492;28;20117;-59
2023/07/08 03:18:26;;;;;;;9.07;5.40;;;16.40;99.90;;;;;;4971605;28;20043;-60
2023/07/08 03:20:55;;;;;;;7.60;5.32;;;16.30;99.90;;;;;;4956020;28;20614;-60
2023/07/08 03:23:22;;;;;;;8.18;5.25;;;16.30;99.90;;;;;;4939930;28;20121;-59
2023/07/08 03:25:48;;;;;;;7.00;5.40;;;16.30;99.90;;;;;;4969762;28;20046;-60
2023/07/08 03:28:14;;;;;;;7.22;5.07;;;16.30;99.90;;;;;;4975636;28;20047;-58
2023/07/08 03:30:44;;;;;;;9.40;5.40;;;16.30;99.90;;;;;;4976823;28;20137;-60
2023/07/08 03:33:11;;;;;;;8.98;5.13;;;16.30;99.90;;;;;;4955783;28;20050;-60
2023/07/08 03:35:38;;;;;;;12.15;5.80;;;16.30;99.90;;;;;;4972146;28;20145;-60
2023/07/08 03:38:04;;;;;;;8.73;5.95;;;16.30;99.90;;;;;;4972998;28;20433;-60
2023/07/08 03:40:31;;;;;;;9.40;5.72;;;16.30;99.90;;;;;;4975471;28;20208;-60
2023/07/08 03:42:57;;;;;;;11.10;5.53;;;16.30;99.90;;;;;;4972935;28;20394;-60
2023/07/08 03:45:23;;;;;;;7.88;5.60;;;16.30;99.90;;;;;;4976332;28;20039;-60
2023/07/08 03:47:48;;;;;;;10.05;5.75;;;16.30;99.90;;;;;;4973560;28;20203;-59
2023/07/08 03:50:23;;;;;;;9.93;5.60;;;16.30;99.90;;;;;;4977953;28;20057;-60
2023/07/08 03:52:52;;;;;;;9.75;5.75;;;16.30;99.90;;;;;;4975143;28;20043;-59
2023/07/08 03:55:18;;;;;;;7.75;5.47;;;16.30;99.90;;;;;;4979597;28;20037;-59
2023/07/08 03:57:44;;;;;;;6.88;5.43;;;16.30;99.90;;;;;;4979610;28;20049;-60
2023/07/08 04:00:12;;;;;;;6.85;5.38;;;16.30;99.90;;;;;;4960535;28;21133;-60
2023/07/08 04:02:39;;;;;;;9.20;5.75;;;16.30;99.90;;;;;;4973767;28;20069;-58
2023/07/08 04:05:05;;;;;;;12.05;5.50;;;16.40;99.90;;;;;;4977301;28;20494;-59
2023/07/08 04:07:32;;;;;;;8.27;5.50;;;16.40;99.90;;;;;;4978256;28;20121;-59
2023/07/08 04:09:57;;;;;;;8.63;5.80;;;16.40;99.90;;;;;;4962714;28;20494;-60
2023/07/08 04:12:23;;;;;;;12.40;5.95;;;16.40;99.90;;;;;;4978044;28;20101;-60
2023/07/08 04:14:49;;;;;;;9.50;5.63;;;16.40;99.90;;;;;;4972707;28;20042;-60
2023/07/08 04:17:17;;;;;;;7.05;5.28;;;16.40;99.90;;;;;;4979637;28;20058;-60
2023/07/08 04:19:43;;;;;;;9.60;5.82;;;16.40;99.90;;;;;;4978661;28;20478;-60
2023/07/08 04:22:10;;;;;;;9.02;5.82;;;16.40;99.90;;;;;;4980748;28;20038;-59
2023/07/08 04:24:36;;;;;;;10.90;5.47;;;16.50;99.90;;;;;;4977791;28;20052;-60
2023/07/08 04:27:02;;;;;;;8.18;5.65;;;16.50;99.90;;;;;;4964485;28;20050;-60
2023/07/08 04:29:28;;;;;;;8.70;5.20;;;16.60;99.90;;;;;;4977767;28;20034;-60
2023/07/08 04:31:54;;;;;;;9.13;5.25;;;16.60;99.90;;;;;;4979114;28;20086;-60
2023/07/08 04:34:20;;;;;;;7.15;5.38;;;16.60;99.90;;;;;;4980399;28;20042;-59
2023/07/08 04:36:46;;;;;;;8.65;4.93;;;16.70;99.90;;;;;;4978215;28;20053;-59
2023/07/08 04:39:13;;;;;;;6.68;5.22;;;16.70;99.90;;;;;;4981212;28;20117;-60
2023/07/08 04:41:40;;;;;;;7.57;5.15;;;16.70;99.90;;;;;;4978687;28;20050;-60
2023/07/08 04:44:10;;;;;;;9.18;5.10;;;16.80;99.90;;;;;;4967699;28;20039;-60
2023/07/08 04:46:44;;;;;;;9.10;5.50;;;16.80;99.90;;;;;;4980082;28;20042;-60
2023/07/08 04:49:11;;;;;;;8.05;5.20;;;16.90;99.90;;;;;;4961017;28;20046;-59
2023/07/08 04:51:37;;;;;;;9.27;5.38;;;16.90;99.90;;;;;;4978309;28;20129;-60
2023/07/08 04:54:04;;;;;;;8.00;5.00;;;16.90;99.90;;;;;;4960164;28;20057;-60
2023/07/08 04:56:36;;;;;;;10.10;4.80;;;17.00;99.90;;;;;;4977612;28;20062;-60
2023/07/08 04:59:02;;;;;;;6.50;4.80;;;17.00;99.90;;;;;;4960581;28;20065;-60
2023/07/08 05:01:28;;;;;;;11.60;5.43;;;17.00;99.90;;;;;;4959235;28;20050;-60
2023/07/08 05:03:53;;;;;;;8.00;4.88;;;17.10;99.90;;;;;;4976640;28;20049;-60
2023/07/08 05:06:19;;;;;;;10.32;5.40;;;17.10;99.90;;;;;;4975797;28;20154;-60
2023/07/08 05:08:45;;;;;;;7.68;4.88;;;17.20;99.90;;;;;;4962030;28;20035;-60
2023/07/08 05:11:10;;;;;;;7.50;4.72;;;17.20;99.90;;;;;;4976462;28;20030;-60
2023/07/08 05:13:36;;;;;;;7.10;4.60;;;17.30;99.90;;;;;;4980515;28;20049;-60
2023/07/08 05:16:02;;;;;;;6.72;4.82;;;17.30;99.90;;;;;;4963290;28;20722;-60
2023/07/08 05:18:28;;;;;;;9.93;5.07;;;17.40;99.90;;;;;;4957970;28;20042;-59
2023/07/08 05:20:54;;;;;;;9.40;4.63;;;17.40;99.90;;;;;;4970637;28;20905;-59
2023/07/08 05:23:20;;;;;;;7.38;4.80;;;17.50;99.90;;;;;;4974626;28;20125;-58
2023/07/08 05:25:47;;;;;;;5.93;4.45;;;17.50;99.90;;;;;;4975068;28;21425;-59
2023/07/08 05:28:13;;;;;;;8.02;4.70;;;17.60;99.90;;;;;;4974685;28;20046;-60
2023/07/08 05:30:40;;;;;;;8.07;4.70;;;17.60;99.90;;;;;;4974061;28;20518;-59
2023/07/08 05:33:06;;;;;;;11.32;4.53;;;17.60;99.90;;;;;;4973530;28;22377;-60
2023/07/08 05:35:32;;;;;;;9.25;4.82;;;17.70;99.90;;;;;;4973750;28;20047;-60
2023/07/08 05:37:58;;;;;;;8.85;5.00;;;17.70;99.90;;;;;;4971449;28;20380;-59
2023/07/08 05:40:23;;;;;;;7.82;4.85;;;17.80;99.90;;;;;;4975203;28;20045;-58
2023/07/08 05:42:49;;;;;;;8.57;4.72;;;17.80;99.90;;;;;;4966153;28;20038;-59
2023/07/08 05:45:15;;;;;;;7.32;4.43;;;17.80;99.90;;;;;;4974026;28;20042;-60
2023/07/08 05:47:41;;;;;;;7.28;4.95;;;17.90;99.90;;;;;;4973453;28;20038;-60
2023/07/08 05:50:07;;;;;;;6.72;4.80;;;17.90;99.90;;;;;;4967923;28;20049;-60
2023/07/08 05:52:33;;;;;;;6.20;4.53;;;18.00;99.90;;;;;;4975515;28;20056;-59
2023/07/08 05:54:59;;;;;;;7.25;4.85;;;18.10;99.90;;;;;;4956306;28;20511;-60
2023/07/08 05:57:24;;;;;;;7.13;4.55;;;18.10;99.90;;;;;;4949110;28;20066;-60
2023/07/08 05:59:51;;;;;;;7.38;4.80;;;18.20;99.90;;;;;;4970776;28;20101;-59
2023/07/08 06:02:19;;;;;;;9.57;4.60;;;18.20;99.90;;;;;;4972055;28;20126;-60
2023/07/08 06:04:45;;;;;;;6.55;4.47;;;18.30;99.90;;;;;;4974856;28;20522;-60
2023/07/08 06:07:10;;;;;;;6.97;4.25;;;18.40;99.90;;;;;;4970326;28;20042;-60
2023/07/08 06:09:36;;;;;;;7.75;4.93;;;18.40;99.90;;;;;;4967756;28;20043;-60
2023/07/08 06:12:02;;;;;;;8.65;4.78;;;18.50;99.90;;;;;;4970238;28;20042;-60
2023/07/08 06:14:28;;;;;;;6.95;4.00;;;18.60;99.90;;;;;;4963443;28;20391;-60
2023/07/08 06:16:54;;;;;;;9.00;4.60;;;18.70;99.90;;;;;;4948659;28;20083;-59
2023/07/08 06:19:21;;;;;;;8.40;4.28;;;18.70;99.90;;;;;;4957943;28;20501;-60
2023/07/08 06:21:46;;;;;;;12.13;4.47;;;18.80;99.90;;;;;;4969831;28;20458;-60
2023/07/08 06:24:12;;;;;;;6.78;4.38;;;18.90;99.90;;;;;;4966786;28;20034;-58
2023/07/08 06:26:38;;;;;;;5.93;4.15;;;19.00;99.90;;;;;;4964307;28;20050;-60
2023/07/08 06:29:04;;;;;;;8.18;4.25;;;19.10;99.90;;;;;;4955920;28;20498;-60
2023/07/08 06:31:30;;;;;;;8.98;4.25;;;19.20;99.90;;;;;;4948217;28;20055;-59
2023/07/08 06:33:56;;;;;;;5.68;4.13;;;19.30;99.90;;;;;;4970592;28;20057;-60
2023/07/08 06:36:22;;;;;;;5.45;4.32;;;19.40;99.90;;;;;;4954732;28;20096;-60
2023/07/08 06:38:48;;;;;;;5.43;3.75;;;19.50;99.90;;;;;;4966532;28;20105;-60
2023/07/08 06:41:14;;;;;;;9.98;4.10;;;19.60;99.90;;;;;;4968557;28;20121;-60
2023/07/08 06:43:40;;;;;;;6.15;4.30;;;19.70;99.90;;;;;;4972392;28;20116;-59
2023/07/08 06:46:08;;;;;;;7.88;4.13;;;19.80;99.90;;;;;;4970215;28;20034;-59
2023/07/08 06:48:34;;;;;;;7.35;4.10;;;19.90;99.80;;;;;;4971159;28;20046;-61
2023/07/08 06:51:00;;;;;;;5.88;3.88;;;20.00;99.40;;;;;;4967248;28;20061;-60
2023/07/08 06:53:25;;;;;;;8.07;3.90;;;20.10;99.20;;;;;;4965219;28;20069;-60
2023/07/08 06:55:51;;;;;;;6.47;4.07;;;20.20;99.20;;;;;;4936299;28;20050;-59
2023/07/08 06:58:17;;;;;;;6.85;3.63;;;20.20;99.00;;;;;;4967504;28;20054;-60
2023/07/08 07:00:44;;;;;;;5.70;3.85;;;20.40;98.80;;;;;;4956580;28;20058;-60
2023/07/08 07:03:11;;;;;;;5.45;3.50;;;20.50;98.80;;;;;;4975925;28;20130;-60
2023/07/08 07:05:37;;;;;;;8.57;3.88;;;20.70;98.60;;;;;;4972599;28;20390;-60
2023/07/08 07:08:03;;;;;;;4.88;3.55;;;20.80;98.30;;;;;;4973422;28;20065;-60
2023/07/08 07:10:29;;;;;;;6.18;3.50;;;20.90;98.10;;;;;;4968596;28;20038;-61
2023/07/08 07:12:55;;;;;;;9.52;3.95;;;21.00;97.80;;;;;;4972137;28;20398;-61
2023/07/08 07:15:20;;;;;;;4.75;3.40;;;21.20;97.80;;;;;;4967173;28;20125;-60
2023/07/08 07:17:46;;;;;;;6.28;3.65;;;21.30;97.50;;;;;;4956781;28;20518;-60
2023/07/08 07:20:13;;;;;;;6.05;3.72;;;21.40;97.20;;;;;;4966894;28;20049;-59
2023/07/08 07:22:38;;;;;;;5.95;3.83;;;21.50;96.80;;;;;;4972554;28;20088;-61
2023/07/08 07:25:05;;;;;;;7.35;3.47;;;21.60;96.60;;;;;;4964303;28;20513;-61
2023/07/08 07:27:30;;;;;;;6.50;3.25;;;21.70;96.20;;;;;;4971114;28;20407;-60
2023/07/08 07:29:59;;;;;;;4.35;3.40;;;21.80;95.90;;;;;;4958455;28;20042;-60
2023/07/08 07:32:25;;;;;;;7.63;3.60;;;21.90;95.70;;;;;;4961413;28;20046;-61
2023/07/08 07:34:52;;;;;;;5.72;3.28;;;22.00;95.30;;;;;;4945106;28;20042;-60
2023/07/08 07:37:20;;;;;;;7.15;2.97;;;22.10;95.00;;;;;;4959113;28;20046;-60
2023/07/08 07:39:46;;;;;;;6.43;3.20;;;22.20;94.70;;;;;;4944675;28;20078;-60
2023/07/08 07:42:14;;;;;;;5.97;3.38;;;22.30;94.30;;;;;;4947139;28;20047;-59
2023/07/08 07:44:39;;;;;;;5.45;3.58;;;22.40;94.20;;;;;;4972438;28;20042;-60
2023/07/08 07:47:06;;;;;;;9.25;3.33;;;22.50;93.40;;;;;;4968225;28;20149;-60
2023/07/08 07:49:32;;;;;;;6.30;3.30;;;22.60;92.80;;;;;;4975102;28;20055;-60
2023/07/08 07:51:58;;;;;;;6.63;3.50;;;22.70;92.60;;;;;;4971479;28;20092;-60
2023/07/08 07:54:24;;;;;;;7.88;3.47;;;22.80;92.40;;;;;;4974198;28;20054;-60
2023/07/08 07:56:50;;;;;;;5.85;3.47;;;22.90;92.40;;;;;;4970450;28;20104;-59
2023/07/08 07:59:15;;;;;;;4.18;3.22;;;23.00;92.20;;;;;;4974395;28;20130;-60
2023/07/08 08:01:42;;;;;;;4.22;3.50;;;23.10;91.90;;;;;;4976719;28;20082;-61
2023/07/08 08:04:09;;;;;;;6.07;3.10;;;23.20;91.60;;;;;;4977975;28;20074;-60
2023/07/08 08:06:35;;;;;;;9.35;3.58;;;23.30;91.10;;;;;;4979019;28;20129;-61
2023/07/08 08:09:00;;;;;;;9.43;3.20;;;23.40;91.00;;;;;;4982139;28;20031;-60
2023/07/08 08:11:26;;;;;;;4.72;3.20;;;23.50;91.30;;;;;;4963468;28;20050;-61
2023/07/08 08:13:53;;;;;;;8.68;3.58;;;23.60;91.00;;;;;;4981223;28;20053;-61
2023/07/08 08:16:22;;;;;;;7.55;3.60;;;23.70;90.90;;;;;;4976840;28;20746;-61
2023/07/08 08:18:48;;;;;;;7.25;3.10;;;23.80;90.70;;;;;;4975350;28;20386;-61
2023/07/08 08:21:14;;;;;;;6.45;3.03;;;23.90;90.50;;;;;;4973887;28;20042;-61
2023/07/08 08:23:40;;;;;;;7.93;3.40;;;24.10;90.20;;;;;;4969670;28;20192;-61
2023/07/08 08:26:05;;;;;;;3.83;3.15;;;24.20;90.20;;;;;;4966853;28;20042;-61
2023/07/08 08:28:31;;;;;;;5.82;2.90;;;24.30;90.20;;;;;;4968209;28;20057;-61
2023/07/08 08:30:57;;;;;;;5.03;2.90;;;24.40;90.00;;;;;;4953437;28;20042;-61
2023/07/08 08:33:23;;;;;;;8.30;3.20;;;24.50;90.00;;;;;;4958186;28;20046;-61
2023/07/08 08:35:49;;;;;;;5.63;3.40;;;24.70;90.00;;;;;;4977515;28;20075;-64
2023/07/08 08:38:14;;;;;;;5.07;3.13;;;24.80;88.90;;;;;;4961668;28;20053;-65
2023/07/08 08:40:42;;;;;;;4.15;3.05;;;24.90;87.30;;;;;;4962368;28;20165;-65
2023/07/08 08:43:15;;;;;;;3.95;3.00;;;25.00;86.90;;;;;;4975700;28;20043;-65
2023/07/08 08:46:00;;;;;;;11.25;3.08;;;25.10;86.50;;;;;;4961860;28;20034;-65
2023/07/08 08:48:29;;;;;;;8.68;3.20;;;25.20;86.60;;;;;;4949263;28;20046;-65
2023/07/08 08:51:11;;;;;;;5.53;2.80;;;25.30;85.90;;;;;;4980190;28;20061;-69
2023/07/08 08:53:37;;;;;;;4.18;2.95;;;25.40;85.00;;;;;;4975821;28;20085;-65
2023/07/08 08:56:20;;;;;;;4.18;2.90;;;25.50;85.30;;;;;;4948783;28;20179;-65
2023/07/08 08:58:49;;;;;;;4.57;2.97;;;25.70;86.10;;;;;;4965221;28;20050;-66
2023/07/08 09:01:16;;;;;;;4.25;2.85;;;25.90;85.80;;;;;;4978021;28;20061;-64
2023/07/08 09:03:59;;;;;;;5.20;2.97;;;26.00;83.50;;;;;;4965727;28;20062;-65
2023/07/08 09:06:30;;;;;;;4.30;3.10;;;26.10;82.10;;;;;;4957591;28;20125;-65
2023/07/08 09:09:01;;;;;;;4.50;2.95;;;26.20;81.30;;;;;;4975403;28;20339;-66
2023/07/08 09:11:52;;;;;;;4.03;2.88;;;26.30;80.50;;;;;;4977266;28;20042;-65
2023/07/08 09:14:29;;;;;;;6.47;3.05;;;26.50;80.40;;;;;;4972971;28;20046;-66
2023/07/08 09:17:13;;;;;;;10.48;3.50;;;26.60;80.00;;;;;;4961022;28;20042;-65
2023/07/08 09:19:51;;;;;;;5.00;3.22;;;26.70;79.70;;;;;;4959492;28;20039;-67
2023/07/08 09:22:44;;;;;;;3.78;3.17;;;26.90;80.00;;;;;;4976663;28;20038;-66
2023/07/08 09:25:24;;;;;;;5.63;2.83;;;27.10;78.70;;;;;;4976252;28;20394;-66
2023/07/08 09:27:49;;;;;;;3.50;2.80;;;27.10;77.50;;;;;;4958912;28;20122;-65
2023/07/08 09:30:21;;;;;;;5.55;2.67;;;27.20;75.90;;;;;;4957846;28;20054;-66
2023/07/08 09:32:48;;;;;;;5.47;3.08;;;27.30;75.70;;;;;;4971877;28;20045;-64
2023/07/08 09:35:22;;;;;;;5.72;2.67;;;27.40;76.20;;;;;;4977677;28;20051;-63
2023/07/08 09:37:49;;;;;;;5.38;2.63;;;27.60;77.30;;;;;;4956085;28;20043;-64
2023/07/08 09:40:21;;;;;;;3.72;2.60;;;27.80;75.20;;;;;;4978444;28;20039;-66
2023/07/08 09:42:54;;;;;;;4.60;2.60;;;27.90;73.30;;;;;;4981278;28;20054;-67
2023/07/08 09:45:23;;;;;;;7.15;2.60;;;28.00;73.90;;;;;;4979726;28;20045;-66
2023/07/08 09:47:54;;;;;;;3.95;2.70;;;28.20;73.50;;;;;;4978923;28;20043;-66
2023/07/08 09:50:26;;;;;;;6.25;2.83;;;28.40;73.30;;;;;;4977839;28;20042;-65
2023/07/08 09:52:57;;;;;;;7.30;3.05;;;28.50;71.20;;;;;;4975384;28;20039;-66
2023/07/08 09:55:23;;;;;;;5.95;2.78;;;28.60;71.30;;;;;;4977387;28;20053;-67
2023/07/08 09:57:52;;;;;;;4.03;2.97;;;28.70;71.30;;;;;;4972479;28;20050;-66
2023/07/08 10:00:28;;;;;;;6.53;2.97;;;28.80;69.80;;;;;;4968723;28;20046;-63
2023/07/08 10:03:01;;;;;;;4.05;2.40;;;28.80;69.20;;;;;;4970923;28;20475;-66
2023/07/08 10:05:40;;;;;;;6.10;3.00;;;28.80;69.70;;;;;;4971326;28;20042;-65
2023/07/08 10:08:20;;;;;;;4.72;2.85;;;28.90;69.20;;;;;;4956124;28;20042;-64
2023/07/08 10:10:58;;;;;;;5.82;3.08;;;29.00;69.00;;;;;;4955462;28;20122;-67
2023/07/08 10:13:41;;;;;;;3.08;2.65;;;29.10;68.00;;;;;;4953410;28;20042;-65
2023/07/08 10:16:25;;;;;;;4.40;2.63;;;29.20;68.30;;;;;;4957708;28;20114;-62
2023/07/08 10:18:51;;;;;;;5.20;2.90;;;29.30;68.70;;;;;;4955826;28;20042;-72
2023/07/08 10:21:36;;;;;;;3.95;2.75;;;29.40;67.60;;;;;;4973791;28;20046;-63
2023/07/08 10:24:23;;;;;;;3.97;2.80;;;29.50;68.40;;;;;;4956690;28;20078;-64
2023/07/08 10:27:12;;;;;;;11.25;3.00;;;29.60;67.90;;;;;;4970332;28;20129;-63
2023/07/08 10:30:08;;;;;;;4.78;2.92;;;29.70;68.10;;;;;;4959038;28;20051;-63
2023/07/08 10:32:42;;;;;;;4.80;2.90;;;29.80;66.40;;;;;;4971648;28;20120;-64
2023/07/08 10:35:13;;;;;;;6.20;2.75;;;29.90;66.70;;;;;;4953009;28;20037;-64
2023/07/08 10:37:56;;;;;;;4.95;2.92;;;30.00;66.50;;;;;;4977660;28;20042;-63
2023/07/08 10:40:54;;;;;;;3.97;2.80;;;30.20;67.10;;;;;;4970511;28;20051;-65
2023/07/08 10:43:20;;;;;;;7.32;2.78;;;30.40;66.30;;;;;;4956468;28;20086;-67
2023/07/08 10:45:55;;;;;;;5.38;2.65;;;30.50;65.60;;;;;;4970554;28;20126;-64
2023/07/08 10:48:39;;;;;;;4.47;2.88;;;30.60;65.30;;;;;;4967872;28;20088;-64
2023/07/08 10:51:29;;;;;;;5.75;2.90;;;30.70;65.60;;;;;;4945745;28;20141;-65
2023/07/08 10:54:27;;;;;;;7.47;2.78;;;30.80;64.30;;;;;;4973430;28;20049;-65
2023/07/08 10:57:14;;;;;;;4.82;2.90;;;30.90;63.60;;;;;;4971782;28;20054;-63
2023/07/08 11:00:28;;;;;;;4.90;2.83;;;31.00;64.00;;;;;;4964179;28;20094;-64
2023/07/08 11:03:15;;;;;;;7.05;2.60;;;31.20;63.60;;;;;;4889946;29;20227;-63
2023/07/08 11:05:55;;;;;;;4.63;3.15;;;31.40;63.50;;;;;;4973107;28;20050;-64
2023/07/08 11:08:31;;;;;;;4.20;2.72;;;31.50;62.90;;;;;;4971574;28;20108;-64
2023/07/08 11:11:07;;;;;;;5.50;2.60;;;31.60;62.50;;;;;;4973358;28;20818;-64
2023/07/08 11:13:44;;;;;;;6.22;2.85;;;31.70;59.60;;;;;;4950935;28;20043;-63
2023/07/08 11:16:22;;;;;;;5.68;2.90;;;31.70;61.50;;;;;;4969468;28;20569;-63
2023/07/08 11:18:58;;;;;;;7.90;3.40;;;31.90;60.60;;;;;;4968313;28;20047;-64
2023/07/08 11:21:41;;;;;;;10.88;3.03;;;31.90;60.00;;;;;;4950348;28;20073;-61
2023/07/08 11:24:07;;;;;;;4.80;3.08;;;32.00;60.30;;;;;;4969668;28;20501;-64
2023/07/08 11:26:57;;;;;;;3.85;2.83;;;32.00;59.80;;;;;;4979067;28;20050;-63
2023/07/08 11:29:30;;;;;;;3.13;2.63;;;32.20;59.50;;;;;;4975194;28;20042;-64
2023/07/08 11:31:56;;;;;;;3.22;2.67;;;32.20;59.50;;;;;;4972860;28;20100;-63
2023/07/08 11:34:25;;;;;;;5.15;3.00;;;32.30;59.00;;;;;;4972058;28;20113;-64
2023/07/08 11:36:52;;;;;;;3.00;2.70;;;32.40;58.60;;;;;;4969583;28;20084;-64
2023/07/08 11:39:38;;;;;;;7.10;2.90;;;32.40;57.80;;;;;;4970866;28;20119;-63
2023/07/08 11:42:36;;;;;;;6.55;3.30;;;32.40;57.70;;;;;;4970162;28;20043;-64
2023/07/08 11:45:11;;;;;;;8.38;4.07;;;32.40;57.90;;;;;;4966334;28;20097;-63
2023/07/08 11:48:10;;;;;;;4.18;3.33;;;32.60;58.40;;;;;;4975127;28;20494;-61
2023/07/08 11:50:47;;;;;;;3.85;2.80;;;32.80;58.00;;;;;;4972388;28;20085;-60
2023/07/08 11:53:37;;;;;;;4.93;2.83;;;32.90;57.10;;;;;;4975354;28;20042;-61
2023/07/08 11:56:15;;;;;;;4.70;2.92;;;33.00;57.20;;;;;;4975974;28;20065;-62
2023/07/08 11:58:47;;;;;;;4.53;3.05;;;33.10;57.00;;;;;;4958848;28;20053;-61
2023/07/08 12:01:13;;;;;;;7.50;2.90;;;33.30;57.70;;;;;;4978089;28;20061;-61
2023/07/08 12:04:07;;;;;;;4.70;3.03;;;33.40;56.20;;;;;;4979605;28;20054;-62
2023/07/08 12:06:36;;;;;;;3.85;2.88;;;33.40;55.40;;;;;;4978830;28;20050;-61
2023/07/08 12:09:30;;;;;;;5.40;3.40;;;33.40;56.10;;;;;;4980182;28;20126;-61
2023/07/08 12:12:07;;;;;;;3.63;2.78;;;33.50;55.10;;;;;;4982314;28;20121;-61
2023/07/08 12:14:33;;;;;;;3.85;2.88;;;33.60;55.40;;;;;;4978256;28;20050;-61
2023/07/08 12:16:59;;;;;;;3.90;2.90;;;33.60;54.90;;;;;;4974944;28;20058;-60
2023/07/08 12:19:31;;;;;;;3.85;2.90;;;33.60;54.30;;;;;;4979767;28;20038;-61
2023/07/08 12:21:57;;;;;;;6.13;2.70;;;33.60;54.60;;;;;;4981490;28;20042;-62
2023/07/08 12:24:26;;;;;;;4.60;2.72;;;33.70;54.90;;;;;;4970826;28;20554;-61
2023/07/08 12:26:52;;;;;;;7.18;3.25;;;33.80;54.50;;;;;;4979623;28;20049;-62
2023/07/08 12:29:18;;;;;;;5.00;3.20;;;33.90;54.40;;;;;;4982459;28;20039;-61
2023/07/08 12:31:45;;;;;;;4.20;2.90;;;34.10;53.60;;;;;;4980522;28;20073;-62
2023/07/08 12:34:16;;;;;;;5.95;2.85;;;34.20;53.90;;;;;;4982127;28;20050;-61
2023/07/08 12:36:44;;;;;;;6.85;3.30;;;34.40;53.50;;;;;;4980997;28;20049;-62
2023/07/08 12:39:19;;;;;;;4.72;2.95;;;34.60;52.90;;;;;;4981221;28;20069;-61
2023/07/08 12:41:46;;;;;;;5.78;3.20;;;34.80;51.60;;;;;;4983188;28;20046;-61
2023/07/08 12:44:23;;;;;;;5.47;2.80;;;34.80;51.10;;;;;;4982442;28;20506;-61
2023/07/08 12:46:53;;;;;;;4.13;2.70;;;34.70;51.30;;;;;;4980624;28;20065;-62
2023/07/08 12:49:20;;;;;;;3.10;2.80;;;34.80;51.10;;;;;;4980791;28;20042;-62
2023/07/08 12:51:46;;;;;;;5.07;3.60;;;34.80;51.60;;;;;;4980436;28;20109;-61
2023/07/08 12:54:13;;;;;;;4.15;2.90;;;34.90;51.80;;;;;;4980188;28;20076;-60
2023/07/08 12:56:43;;;;;;;5.47;3.33;;;35.00;50.90;;;;;;4982699;28;20086;-62
2023/07/08 12:59:16;;;;;;;3.53;2.88;;;35.20;50.70;;;;;;4980322;28;20046;-61